createdAt,value
2023-01-02T00:00:43.747Z,991.88
2023-01-02T00:01:43.600Z,991.84
2023-01-02T00:02:43.878Z,991.85
2023-01-02T00:03:43.844Z,991.87
2023-01-02T00:04:43.581Z,991.84
2023-01-02T00:05:43.634Z,991.83
2023-01-02T00:06:43.611Z,991.85
2023-01-02T00:07:43.556Z,991.88
2023-01-02T00:08:43.541Z,991.86
2023-01-02T00:09:43.632Z,991.90
2023-01-02T00:10:43.574Z,991.87
2023-01-02T00:11:43.582Z,991.84
2023-01-02T00:12:43.532Z,991.87
2023-01-02T00:13:43.725Z,991.83
2023-01-02T00:14:43.519Z,991.86
2023-01-02T00:15:43.523Z,991.83
2023-01-02T00:16:43.505Z,991.82
2023-01-02T00:17:43.473Z,991.82
2023-01-02T00:18:43.521Z,991.84
2023-01-02T00:19:43.482Z,991.86
2023-01-02T00:20:43.476Z,991.84
2023-01-02T00:21:43.579Z,991.83
2023-01-02T00:22:43.443Z,991.79
2023-01-02T00:23:43.420Z,991.90
2023-01-02T00:24:43.533Z,991.88
2023-01-02T00:25:43.483Z,991.78
2023-01-02T00:26:43.433Z,991.73
2023-01-02T00:27:43.434Z,991.75
2023-01-02T00:28:43.456Z,991.75
2023-01-02T00:29:43.481Z,991.74
2023-01-02T00:30:43.505Z,991.71
2023-01-02T00:31:43.507Z,991.77
2023-01-02T00:32:43.391Z,991.77
2023-01-02T00:33:43.390Z,991.78
2023-01-02T00:34:43.431Z,991.78
2023-01-02T00:35:43.356Z,991.78
2023-01-02T00:36:43.435Z,991.77
2023-01-02T00:37:43.559Z,991.70
2023-01-02T00:38:43.355Z,991.67
2023-01-02T00:39:43.352Z,991.68
2023-01-02T00:40:43.521Z,991.70
2023-01-02T00:41:43.455Z,991.74
2023-01-02T00:42:43.330Z,991.75
2023-01-02T00:43:43.337Z,991.73
2023-01-02T00:44:43.331Z,991.66
2023-01-02T00:45:43.552Z,991.66
2023-01-02T00:46:43.295Z,991.71
2023-01-02T00:47:43.269Z,991.68
2023-01-02T00:48:43.354Z,991.71
2023-01-02T00:49:43.336Z,991.72
2023-01-02T00:50:43.333Z,991.75
2023-01-02T00:51:43.268Z,991.75
2023-01-02T00:52:43.241Z,991.76
2023-01-02T00:53:43.764Z,991.77
2023-01-02T00:54:43.207Z,991.76
2023-01-02T00:55:43.251Z,991.75
2023-01-02T00:56:43.265Z,991.73
2023-01-02T00:57:43.457Z,991.71
2023-01-02T00:58:43.203Z,991.73
2023-01-02T00:59:43.155Z,991.71
2023-01-02T01:00:43.339Z,991.67
2023-01-02T01:01:43.328Z,991.71
2023-01-02T01:02:43.302Z,991.67
2023-01-02T01:03:43.331Z,991.62
2023-01-02T01:04:43.217Z,991.63
2023-01-02T01:05:43.156Z,991.64
2023-01-02T01:06:43.197Z,991.57
2023-01-02T01:07:43.118Z,991.60
2023-01-02T01:08:43.209Z,991.61
2023-01-02T01:09:43.131Z,991.68
2023-01-02T01:10:43.113Z,991.69
2023-01-02T01:11:43.093Z,991.66
2023-01-02T01:12:43.302Z,991.65
2023-01-02T01:13:43.160Z,991.69
2023-01-02T01:14:43.039Z,991.67
2023-01-02T01:15:43.073Z,991.69
2023-01-02T01:16:43.189Z,991.70
2023-01-02T01:17:43.260Z,991.71
2023-01-02T01:18:43.111Z,991.72
2023-01-02T01:19:43.066Z,991.72
2023-01-02T01:20:43.024Z,991.71
2023-01-02T01:21:43.052Z,991.71
2023-01-02T01:22:43.074Z,991.76
2023-01-02T01:23:43.003Z,991.76
2023-01-02T01:24:43.060Z,991.74
2023-01-02T01:25:43.035Z,991.75
2023-01-02T01:26:43.075Z,991.75
2023-01-02T01:27:42.983Z,991.76
2023-01-02T01:28:43.039Z,991.79
2023-01-02T01:29:42.971Z,991.75
2023-01-02T01:30:43.000Z,991.68
2023-01-02T01:31:43.049Z,991.69
2023-01-02T01:32:43.007Z,991.67
2023-01-02T01:33:42.957Z,991.65
2023-01-02T01:34:42.955Z,991.62
2023-01-02T01:35:42.993Z,991.61
2023-01-02T01:36:42.917Z,991.59
2023-01-02T01:37:42.981Z,991.55
2023-01-02T01:38:42.957Z,991.60
2023-01-02T01:39:43.077Z,991.61
2023-01-02T01:40:43.249Z,991.60
2023-01-02T01:41:42.982Z,991.61
2023-01-02T01:42:42.932Z,991.61
2023-01-02T01:43:42.842Z,991.62
2023-01-02T01:44:42.934Z,991.59
2023-01-02T01:45:42.903Z,991.58
2023-01-02T01:46:43.025Z,991.56
2023-01-02T01:47:42.820Z,991.53
2023-01-02T01:48:42.806Z,991.55
2023-01-02T01:49:42.780Z,991.47
2023-01-02T01:50:42.767Z,991.43
2023-01-02T01:51:42.780Z,991.36
2023-01-02T01:52:42.776Z,991.35
2023-01-02T01:53:42.940Z,991.33
2023-01-02T01:54:42.799Z,991.34
2023-01-02T01:55:42.719Z,991.32
2023-01-02T01:56:42.732Z,991.30
2023-01-02T01:57:42.701Z,991.26
2023-01-02T01:58:42.724Z,991.25
2023-01-02T01:59:42.704Z,991.20
2023-01-02T02:00:42.777Z,991.23
2023-01-02T02:01:43.065Z,991.23
2023-01-02T02:02:42.936Z,991.24
2023-01-02T02:03:42.678Z,991.24
2023-01-02T02:04:42.756Z,991.24
2023-01-02T02:05:42.663Z,991.23
2023-01-02T02:06:42.988Z,991.23
2023-01-02T02:07:42.677Z,991.22
2023-01-02T02:08:42.658Z,991.21
2023-01-02T02:09:42.701Z,991.20
2023-01-02T02:10:42.648Z,991.19
2023-01-02T02:11:42.629Z,991.23
2023-01-02T02:12:42.623Z,991.20
2023-01-02T02:13:42.692Z,991.19
2023-01-02T02:14:42.624Z,991.21
2023-01-02T02:15:42.575Z,991.22
2023-01-02T02:16:42.604Z,991.19
2023-01-02T02:17:42.627Z,991.21
2023-01-02T02:18:42.593Z,991.12
2023-01-02T02:19:42.608Z,991.15
2023-01-02T02:20:42.639Z,991.13
2023-01-02T02:21:42.876Z,991.13
2023-01-02T02:22:42.544Z,991.12
2023-01-02T02:23:42.538Z,991.11
2023-01-02T02:24:42.523Z,991.09
2023-01-02T02:25:42.539Z,991.10
2023-01-02T02:26:42.766Z,991.04
2023-01-02T02:27:42.503Z,991.04
2023-01-02T02:28:42.551Z,991.02
2023-01-02T02:29:42.555Z,991.00
2023-01-02T02:30:42.563Z,991.07
2023-01-02T02:31:42.663Z,991.04
2023-01-02T02:32:42.493Z,991.05
2023-01-02T02:33:42.512Z,991.05
2023-01-02T02:34:42.536Z,991.03
2023-01-02T02:35:42.485Z,991.05
2023-01-02T02:36:42.488Z,991.03
2023-01-02T02:37:42.501Z,991.04
2023-01-02T02:38:42.400Z,991.00
2023-01-02T02:39:42.448Z,991.00
2023-01-02T02:40:42.420Z,990.96
2023-01-02T02:41:42.477Z,990.96
2023-01-02T02:42:42.412Z,990.91
2023-01-02T02:43:42.376Z,990.93
2023-01-02T02:44:42.374Z,990.90
2023-01-02T02:45:42.382Z,990.92
2023-01-02T02:46:42.387Z,990.89
2023-01-02T02:47:42.774Z,990.84
2023-01-02T02:48:46.565Z,990.83
2023-01-02T02:49:42.316Z,990.80
2023-01-02T02:50:42.334Z,990.76
2023-01-02T02:51:42.312Z,990.83
2023-01-02T02:52:42.288Z,990.79
2023-01-02T02:53:42.279Z,990.72
2023-01-02T02:54:42.294Z,990.73
2023-01-02T02:55:42.262Z,990.73
2023-01-02T02:56:42.339Z,990.74
2023-01-02T02:57:42.283Z,990.75
2023-01-02T02:58:42.290Z,990.70
2023-01-02T02:59:42.266Z,990.66
2023-01-02T03:00:42.339Z,990.67
2023-01-02T03:01:42.414Z,990.65
2023-01-02T03:02:42.424Z,990.66
2023-01-02T03:03:42.202Z,990.64
2023-01-02T03:04:42.260Z,990.67
2023-01-02T03:05:42.305Z,990.69
2023-01-02T03:06:42.197Z,990.60
2023-01-02T03:07:42.303Z,990.63
2023-01-02T03:08:42.422Z,990.64
2023-01-02T03:09:42.215Z,990.65
2023-01-02T03:10:42.196Z,990.64
2023-01-02T03:11:42.163Z,990.68
2023-01-02T03:12:42.160Z,990.64
2023-01-02T03:13:42.625Z,990.68
2023-01-02T03:14:42.177Z,990.69
2023-01-02T03:15:42.149Z,990.70
2023-01-02T03:16:42.324Z,990.71
2023-01-02T03:17:42.110Z,990.73
2023-01-02T03:18:42.079Z,990.71
2023-01-02T03:19:42.204Z,990.72
2023-01-02T03:20:42.120Z,990.71
2023-01-02T03:21:42.102Z,990.72
2023-01-02T03:22:42.094Z,990.66
2023-01-02T03:23:42.166Z,990.73
2023-01-02T03:24:42.044Z,990.69
2023-01-02T03:25:42.070Z,990.71
2023-01-02T03:26:42.051Z,990.72
2023-01-02T03:27:42.022Z,990.66
2023-01-02T03:28:42.030Z,990.62
2023-01-02T03:29:42.047Z,990.62
2023-01-02T03:30:42.112Z,990.64
2023-01-02T03:31:42.012Z,990.61
2023-01-02T03:32:42.038Z,990.59
2023-01-02T03:33:42.100Z,990.63
2023-01-02T03:34:41.963Z,990.57
2023-01-02T03:35:42.023Z,990.64
2023-01-02T03:36:41.970Z,990.64
2023-01-02T03:37:41.966Z,990.60
2023-01-02T03:38:42.159Z,990.59
2023-01-02T03:39:41.979Z,990.66
2023-01-02T03:40:42.006Z,990.58
2023-01-02T03:41:41.948Z,990.64
2023-01-02T03:42:41.921Z,990.65
2023-01-02T03:43:42.052Z,990.61
2023-01-02T03:44:41.942Z,990.63
2023-01-02T03:45:41.927Z,990.57
2023-01-02T03:46:41.897Z,990.57
2023-01-02T03:47:41.905Z,990.55
2023-01-02T03:48:41.854Z,990.58
2023-01-02T03:49:41.882Z,990.50
2023-01-02T03:50:41.850Z,990.52
2023-01-02T03:51:41.854Z,990.50
2023-01-02T03:52:41.837Z,990.52
2023-01-02T03:53:41.825Z,990.53
2023-01-02T03:54:41.817Z,990.53
2023-01-02T03:55:41.825Z,990.53
2023-01-02T03:56:41.781Z,990.57
2023-01-02T03:57:41.825Z,990.54
2023-01-02T03:58:41.837Z,990.55
2023-01-02T03:59:41.801Z,990.52
2023-01-02T04:00:41.786Z,990.55
2023-01-02T04:01:41.978Z,990.56
2023-01-02T04:02:41.829Z,990.53
2023-01-02T04:03:41.838Z,990.58
2023-01-02T04:04:46.849Z,990.53
2023-01-02T04:05:41.934Z,990.56
2023-01-02T04:06:41.777Z,990.54
2023-01-02T04:07:41.773Z,990.48
2023-01-02T04:08:41.743Z,990.52
2023-01-02T04:09:41.787Z,990.45
2023-01-02T04:10:41.744Z,990.46
2023-01-02T04:11:41.696Z,990.49
2023-01-02T04:12:41.820Z,990.52
2023-01-02T04:13:41.781Z,990.51
2023-01-02T04:14:41.757Z,990.49
2023-01-02T04:15:41.700Z,990.55
2023-01-02T04:16:41.710Z,990.52
2023-01-02T04:17:41.709Z,990.54
2023-01-02T04:18:46.621Z,990.57
2023-01-02T04:19:41.623Z,990.58
2023-01-02T04:20:41.691Z,990.53
2023-01-02T04:21:41.630Z,990.57
2023-01-02T04:22:41.619Z,990.56
2023-01-02T04:23:41.643Z,990.53
2023-01-02T04:24:41.826Z,990.52
2023-01-02T04:25:41.675Z,990.51
2023-01-02T04:26:41.635Z,990.49
2023-01-02T04:27:41.635Z,990.50
2023-01-02T04:28:41.570Z,990.48
2023-01-02T04:29:41.580Z,990.48
2023-01-02T04:30:41.607Z,990.49
2023-01-02T04:31:41.566Z,990.47
2023-01-02T04:32:41.573Z,990.48
2023-01-02T04:33:41.579Z,990.49
2023-01-02T04:34:41.537Z,990.51
2023-01-02T04:35:41.806Z,990.49
2023-01-02T04:36:41.528Z,990.50
2023-01-02T04:37:41.497Z,990.49
2023-01-02T04:38:41.511Z,990.55
2023-01-02T04:39:41.578Z,990.57
2023-01-02T04:40:41.492Z,990.58
2023-01-02T04:41:41.461Z,990.57
2023-01-02T04:42:41.518Z,990.57
2023-01-02T04:43:41.501Z,990.60
2023-01-02T04:44:41.469Z,990.60
2023-01-02T04:45:41.427Z,990.66
2023-01-02T04:46:41.544Z,990.69
2023-01-02T04:47:41.437Z,990.65
2023-01-02T04:48:41.420Z,990.61
2023-01-02T04:49:41.376Z,990.61
2023-01-02T04:50:41.394Z,990.66
2023-01-02T04:51:41.431Z,990.69
2023-01-02T04:52:41.390Z,990.66
2023-01-02T04:53:41.481Z,990.61
2023-01-02T04:54:41.390Z,990.65
2023-01-02T04:55:41.345Z,990.65
2023-01-02T04:56:41.391Z,990.67
2023-01-02T04:57:41.345Z,990.75
2023-01-02T04:58:41.408Z,990.73
2023-01-02T04:59:41.542Z,990.73
2023-01-02T05:00:41.556Z,990.74
2023-01-02T05:01:41.417Z,990.75
2023-01-02T05:02:41.383Z,990.74
2023-01-02T05:03:41.349Z,990.79
2023-01-02T05:04:41.294Z,990.80
2023-01-02T05:05:41.256Z,990.81
2023-01-02T05:06:41.285Z,990.79
2023-01-02T05:07:41.294Z,990.82
2023-01-02T05:08:41.279Z,990.80
2023-01-02T05:09:41.288Z,990.78
2023-01-02T05:10:41.285Z,990.79
2023-01-02T05:11:41.237Z,990.79
2023-01-02T05:12:41.198Z,990.77
2023-01-02T05:13:41.437Z,990.74
2023-01-02T05:14:41.453Z,990.76
2023-01-02T05:15:41.260Z,990.77
2023-01-02T05:16:41.226Z,990.78
2023-01-02T05:17:41.156Z,990.78
2023-01-02T05:18:41.216Z,990.75
2023-01-02T05:19:41.173Z,990.73
2023-01-02T05:20:41.216Z,990.79
2023-01-02T05:21:41.146Z,990.73
2023-01-02T05:22:41.242Z,990.75
2023-01-02T05:23:41.129Z,990.80
2023-01-02T05:24:41.171Z,990.81
2023-01-02T05:25:41.144Z,990.84
2023-01-02T05:26:41.141Z,990.82
2023-01-02T05:27:41.303Z,990.89
2023-01-02T05:28:41.168Z,990.85
2023-01-02T05:29:41.235Z,990.83
2023-01-02T05:30:41.112Z,990.86
2023-01-02T05:31:41.186Z,990.86
2023-01-02T05:32:41.167Z,990.86
2023-01-02T05:33:41.140Z,990.95
2023-01-02T05:34:41.077Z,990.96
2023-01-02T05:35:41.259Z,991.02
2023-01-02T05:36:41.102Z,991.05
2023-01-02T05:37:41.026Z,991.02
2023-01-02T05:38:41.096Z,990.98
2023-01-02T05:39:41.106Z,991.00
2023-01-02T05:40:41.047Z,990.95
2023-01-02T05:41:40.997Z,990.94
2023-01-02T05:42:41.007Z,990.94
2023-01-02T05:43:41.017Z,990.97
2023-01-02T05:44:40.996Z,991.03
2023-01-02T05:45:40.995Z,991.03
2023-01-02T05:46:41.052Z,990.99
2023-01-02T05:47:40.942Z,990.92
2023-01-02T05:48:40.942Z,990.97
2023-01-02T05:49:40.956Z,990.95
2023-01-02T05:50:40.924Z,990.95
2023-01-02T05:51:40.932Z,990.92
2023-01-02T05:52:45.609Z,990.86
2023-01-02T05:53:40.906Z,990.84
2023-01-02T05:54:40.918Z,990.83
2023-01-02T05:55:40.870Z,990.81
2023-01-02T05:56:41.088Z,990.81
2023-01-02T05:57:40.912Z,990.84
2023-01-02T05:58:40.865Z,990.79
2023-01-02T05:59:41.001Z,990.75
2023-01-02T06:00:40.929Z,990.79
2023-01-02T06:01:41.005Z,990.86
2023-01-02T06:02:47.056Z,990.78
2023-01-02T06:03:40.988Z,990.87
2023-01-02T06:04:40.884Z,990.85
2023-01-02T06:05:40.836Z,990.83
2023-01-02T06:06:41.030Z,990.83
2023-01-02T06:07:40.818Z,990.85
2023-01-02T06:08:40.999Z,990.80
2023-01-02T06:09:40.831Z,990.83
2023-01-02T06:10:40.808Z,990.85
2023-01-02T06:11:40.748Z,990.87
2023-01-02T06:12:40.773Z,990.91
2023-01-02T06:13:40.844Z,990.92
2023-01-02T06:14:40.744Z,990.97
2023-01-02T06:15:40.752Z,990.96
2023-01-02T06:16:40.855Z,990.92
2023-01-02T06:17:40.767Z,990.99
2023-01-02T06:18:40.753Z,991.00
2023-01-02T06:19:40.698Z,991.03
2023-01-02T06:20:40.749Z,991.08
2023-01-02T06:21:40.692Z,991.10
2023-01-02T06:22:40.707Z,991.07
2023-01-02T06:23:40.707Z,991.05
2023-01-02T06:24:40.712Z,991.09
2023-01-02T06:25:40.657Z,991.11
2023-01-02T06:26:40.828Z,991.15
2023-01-02T06:27:40.742Z,991.12
2023-01-02T06:28:40.690Z,991.14
2023-01-02T06:29:40.653Z,991.13
2023-01-02T06:30:40.598Z,991.16
2023-01-02T06:31:43.467Z,991.17
2023-01-02T06:32:40.617Z,991.17
2023-01-02T06:33:40.645Z,991.19
2023-01-02T06:34:40.605Z,991.20
2023-01-02T06:35:40.609Z,991.21
2023-01-02T06:36:40.619Z,991.19
2023-01-02T06:37:40.649Z,991.19
2023-01-02T06:38:40.652Z,991.20
2023-01-02T06:39:40.557Z,991.21
2023-01-02T06:40:40.585Z,991.21
2023-01-02T06:41:40.585Z,991.22
2023-01-02T06:42:40.654Z,991.23
2023-01-02T06:43:40.568Z,991.23
2023-01-02T06:44:40.619Z,991.21
2023-01-02T06:45:40.609Z,991.18
2023-01-02T06:46:40.614Z,991.19
2023-01-02T06:47:40.714Z,991.22
2023-01-02T06:48:40.511Z,991.20
2023-01-02T06:49:40.520Z,991.25
2023-01-02T06:50:40.534Z,991.21
2023-01-02T06:51:40.540Z,991.23
2023-01-02T06:52:40.540Z,991.21
2023-01-02T06:53:40.438Z,991.22
2023-01-02T06:54:40.456Z,991.27
2023-01-02T06:55:40.448Z,991.28
2023-01-02T06:56:40.439Z,991.24
2023-01-02T06:57:40.413Z,991.26
2023-01-02T06:58:40.507Z,991.24
2023-01-02T06:59:40.495Z,991.24
2023-01-02T07:00:40.509Z,991.23
2023-01-02T07:01:40.542Z,991.19
2023-01-02T07:02:40.482Z,991.22
2023-01-02T07:03:40.429Z,991.23
2023-01-02T07:04:40.413Z,991.18
2023-01-02T07:05:40.444Z,991.21
2023-01-02T07:06:40.378Z,991.18
2023-01-02T07:07:40.343Z,991.22
2023-01-02T07:08:40.327Z,991.21
2023-01-02T07:09:40.328Z,991.17
2023-01-02T07:10:40.308Z,991.20
2023-01-02T07:11:40.525Z,991.23
2023-01-02T07:12:40.349Z,991.28
2023-01-02T07:13:40.306Z,991.30
2023-01-02T07:14:40.499Z,991.30
2023-01-02T07:15:40.275Z,991.29
2023-01-02T07:16:40.292Z,991.33
2023-01-02T07:17:40.277Z,991.33
2023-01-02T07:18:40.230Z,991.34
2023-01-02T07:19:40.516Z,991.33
2023-01-02T07:20:40.237Z,991.29
2023-01-02T07:21:40.207Z,991.38
2023-01-02T07:22:40.241Z,991.35
2023-01-02T07:23:40.215Z,991.35
2023-01-02T07:24:40.279Z,991.36
2023-01-02T07:25:44.396Z,991.36
2023-01-02T07:26:40.261Z,991.38
2023-01-02T07:27:40.209Z,991.34
2023-01-02T07:28:40.211Z,991.39
2023-01-02T07:29:40.171Z,991.38
2023-01-02T07:30:40.233Z,991.38
2023-01-02T07:31:40.277Z,991.42
2023-01-02T07:32:40.122Z,991.44
2023-01-02T07:33:40.188Z,991.42
2023-01-02T07:34:40.232Z,991.43
2023-01-02T07:35:40.109Z,991.49
2023-01-02T07:36:40.192Z,991.47
2023-01-02T07:37:40.183Z,991.48
2023-01-02T07:38:40.108Z,991.47
2023-01-02T07:39:40.148Z,991.46
2023-01-02T07:40:40.101Z,991.47
2023-01-02T07:41:40.111Z,991.52
2023-01-02T07:42:40.111Z,991.52
2023-01-02T07:43:40.093Z,991.53
2023-01-02T07:44:40.104Z,991.53
2023-01-02T07:45:43.650Z,991.51
2023-01-02T07:46:40.137Z,991.50
2023-01-02T07:47:40.038Z,991.50
2023-01-02T07:48:40.003Z,991.49
2023-01-02T07:49:40.195Z,991.48
2023-01-02T07:50:40.021Z,991.50
2023-01-02T07:51:39.976Z,991.52
2023-01-02T07:52:39.978Z,991.49
2023-01-02T07:53:40.011Z,991.51
2023-01-02T07:54:39.963Z,991.51
2023-01-02T07:55:39.975Z,991.56
2023-01-02T07:56:39.969Z,991.55
2023-01-02T07:57:39.929Z,991.57
2023-01-02T07:58:39.909Z,991.59
2023-01-02T07:59:39.927Z,991.58
2023-01-02T08:00:39.904Z,991.57
2023-01-02T08:01:39.961Z,991.54
2023-01-02T08:02:40.181Z,991.55
2023-01-02T08:03:40.010Z,991.52
2023-01-02T08:04:39.935Z,991.56
2023-01-02T08:05:39.902Z,991.53
2023-01-02T08:06:39.878Z,991.55
2023-01-02T08:07:44.823Z,991.58
2023-01-02T08:08:39.859Z,991.53
2023-01-02T08:09:39.861Z,991.56
2023-01-02T08:10:39.847Z,991.54
2023-01-02T08:11:39.850Z,991.52
2023-01-02T08:12:39.898Z,991.53
2023-01-02T08:13:39.860Z,991.54
2023-01-02T08:14:39.820Z,991.54
2023-01-02T08:15:39.774Z,991.55
2023-01-02T08:16:39.856Z,991.54
2023-01-02T08:17:39.984Z,991.54
2023-01-02T08:18:39.824Z,991.53
2023-01-02T08:19:39.767Z,991.56
2023-01-02T08:20:39.975Z,991.57
2023-01-02T08:21:39.761Z,991.66
2023-01-02T08:22:39.785Z,991.67
2023-01-02T08:23:39.735Z,991.65
2023-01-02T08:24:39.707Z,991.70
2023-01-02T08:25:39.741Z,991.70
2023-01-02T08:26:39.721Z,991.71
2023-01-02T08:27:39.933Z,991.73
2023-01-02T08:28:40.157Z,991.73
2023-01-02T08:29:39.940Z,991.72
2023-01-02T08:30:39.752Z,991.76
2023-01-02T08:31:43.652Z,991.76
2023-01-02T08:32:39.689Z,991.76
2023-01-02T08:33:39.888Z,991.81
2023-01-02T08:34:39.719Z,991.87
2023-01-02T08:35:39.625Z,991.82
2023-01-02T08:36:39.670Z,991.80
2023-01-02T08:37:39.672Z,991.84
2023-01-02T08:38:39.753Z,991.79
2023-01-02T08:39:39.659Z,991.77
2023-01-02T08:40:39.691Z,991.79
2023-01-02T08:41:39.629Z,991.79
2023-01-02T08:42:39.820Z,991.80
2023-01-02T08:43:39.566Z,991.83
2023-01-02T08:44:39.583Z,991.80
2023-01-02T08:45:39.598Z,991.85
2023-01-02T08:46:42.883Z,991.85
2023-01-02T08:47:39.577Z,991.83
2023-01-02T08:48:39.573Z,991.81
2023-01-02T08:49:39.639Z,991.78
2023-01-02T08:50:39.566Z,991.73
2023-01-02T08:51:39.567Z,991.73
2023-01-02T08:52:39.753Z,991.70
2023-01-02T08:53:39.547Z,991.78
2023-01-02T08:54:39.561Z,991.86
2023-01-02T08:55:39.897Z,991.89
2023-01-02T08:56:39.532Z,991.81
2023-01-02T08:57:39.497Z,991.85
2023-01-02T08:58:39.522Z,991.82
2023-01-02T08:59:39.498Z,991.78
2023-01-02T09:00:39.482Z,991.74
2023-01-02T09:01:39.637Z,991.71
2023-01-02T09:02:39.633Z,991.73
2023-01-02T09:03:39.540Z,991.74
2023-01-02T09:04:39.457Z,991.70
2023-01-02T09:05:39.438Z,991.75
2023-01-02T09:06:39.543Z,991.78
2023-01-02T09:07:39.649Z,991.83
2023-01-02T09:08:39.702Z,991.86
2023-01-02T09:09:39.436Z,991.81
2023-01-02T09:10:39.426Z,991.81
2023-01-02T09:11:39.452Z,991.83
2023-01-02T09:12:39.453Z,991.82
2023-01-02T09:13:39.397Z,991.81
2023-01-02T09:14:39.368Z,991.81
2023-01-02T09:15:39.449Z,991.85
2023-01-02T09:16:39.596Z,991.81
2023-01-02T09:17:39.407Z,991.80
2023-01-02T09:18:39.398Z,991.76
2023-01-02T09:19:39.585Z,991.73
2023-01-02T09:20:39.347Z,991.72
2023-01-02T09:21:39.391Z,991.70
2023-01-02T09:22:39.368Z,991.73
2023-01-02T09:23:39.330Z,991.66
2023-01-02T09:24:39.329Z,991.63
2023-01-02T09:25:39.314Z,991.63
2023-01-02T09:26:39.333Z,991.65
2023-01-02T09:27:39.303Z,991.70
2023-01-02T09:28:39.320Z,991.70
2023-01-02T09:29:39.300Z,991.71
2023-01-02T09:30:39.302Z,991.78
2023-01-02T09:31:39.573Z,991.81
2023-01-02T09:32:39.373Z,991.82
2023-01-02T09:33:39.258Z,991.83
2023-01-02T09:34:39.265Z,991.88
2023-01-02T09:35:39.268Z,991.85
2023-01-02T09:36:39.494Z,991.86
2023-01-02T09:37:39.271Z,991.85
2023-01-02T09:38:39.273Z,991.86
2023-01-02T09:39:39.231Z,991.91
2023-01-02T09:40:39.267Z,991.87
2023-01-02T09:41:39.262Z,991.90
2023-01-02T09:42:39.224Z,991.87
2023-01-02T09:43:39.464Z,991.91
2023-01-02T09:44:39.220Z,991.84
2023-01-02T09:45:39.214Z,991.86
2023-01-02T09:46:39.272Z,991.84
2023-01-02T09:47:39.199Z,991.84
2023-01-02T09:48:39.192Z,991.79
2023-01-02T09:49:39.219Z,991.83
2023-01-02T09:50:39.229Z,991.88
2023-01-02T09:51:39.202Z,991.89
2023-01-02T09:52:39.235Z,991.90
2023-01-02T09:53:39.218Z,991.83
2023-01-02T09:54:39.319Z,991.82
2023-01-02T09:55:39.190Z,991.79
2023-01-02T09:56:39.399Z,991.84
2023-01-02T09:57:39.220Z,991.84
2023-01-02T09:58:39.180Z,991.78
2023-01-02T09:59:39.193Z,991.70
2023-01-02T10:00:39.153Z,991.68
2023-01-02T10:01:39.190Z,991.66
2023-01-02T10:02:39.210Z,991.66
2023-01-02T10:03:39.317Z,991.67
2023-01-02T10:04:39.152Z,991.75
2023-01-02T10:05:39.147Z,991.79
2023-01-02T10:06:39.168Z,991.81
2023-01-02T10:07:39.134Z,991.82
2023-01-02T10:08:39.140Z,991.83
2023-01-02T10:09:39.132Z,991.82
2023-01-02T10:10:39.194Z,991.78
2023-01-02T10:11:39.324Z,991.83
2023-01-02T10:12:39.162Z,991.77
2023-01-02T10:14:18.067Z,991.81
2023-01-02T10:14:44.204Z,991.80
2023-01-02T10:15:39.179Z,991.81
2023-01-02T10:16:39.146Z,991.77
2023-01-02T10:17:39.315Z,991.72
2023-01-02T10:18:39.115Z,991.71
2023-01-02T10:19:39.156Z,991.78
2023-01-02T10:20:39.145Z,991.75
2023-01-02T10:21:39.131Z,991.72
2023-01-02T10:22:39.125Z,991.75
2023-01-02T10:23:39.119Z,991.73
2023-01-02T10:24:39.257Z,991.73
2023-01-02T10:25:39.114Z,991.75
2023-01-02T10:26:39.336Z,991.75
2023-01-02T10:27:39.135Z,991.75
2023-01-02T10:28:39.153Z,991.71
2023-01-02T10:29:39.112Z,991.74
2023-01-02T10:30:39.141Z,991.79
2023-01-02T10:31:39.181Z,991.82
2023-01-02T10:32:39.339Z,991.78
2023-01-02T10:33:39.096Z,991.81
2023-01-02T10:34:39.322Z,991.86
2023-01-02T10:35:39.121Z,991.87
2023-01-02T10:36:39.182Z,991.82
2023-01-02T10:37:39.118Z,991.80
2023-01-02T10:38:39.088Z,991.81
2023-01-02T10:39:39.097Z,991.75
2023-01-02T10:40:39.126Z,991.77
2023-01-02T10:41:39.115Z,991.79
2023-01-02T10:42:39.135Z,991.79
2023-01-02T10:43:39.327Z,991.74
2023-01-02T10:44:39.100Z,991.79
2023-01-02T10:45:39.094Z,991.70
2023-01-02T10:46:39.160Z,991.74
2023-01-02T10:47:39.101Z,991.82
2023-01-02T10:48:39.115Z,991.81
2023-01-02T10:49:39.289Z,991.83
2023-01-02T10:50:39.083Z,991.80
2023-01-02T10:51:39.035Z,991.82
2023-01-02T10:52:39.046Z,991.81
2023-01-02T10:53:39.074Z,991.77
2023-01-02T10:54:42.757Z,991.72
2023-01-02T10:55:39.056Z,991.69
2023-01-02T10:56:39.041Z,991.68
2023-01-02T10:57:39.060Z,991.72
2023-01-02T10:58:39.076Z,991.71
2023-01-02T10:59:39.121Z,991.72
2023-01-02T11:00:39.086Z,991.73
2023-01-02T11:01:39.157Z,991.72
2023-01-02T11:02:39.198Z,991.71
2023-01-02T11:03:39.202Z,991.73
2023-01-02T11:04:39.018Z,991.66
2023-01-02T11:05:39.029Z,991.67
2023-01-02T11:06:40.019Z,991.69
2023-01-02T11:07:39.043Z,991.68
2023-01-02T11:08:38.985Z,991.68
2023-01-02T11:09:38.976Z,991.62
2023-01-02T11:10:38.987Z,991.63
2023-01-02T11:11:38.946Z,991.59
2023-01-02T11:12:39.019Z,991.59
2023-01-02T11:13:38.994Z,991.55
2023-01-02T11:14:39.001Z,991.59
2023-01-02T11:15:38.955Z,991.55
2023-01-02T11:16:39.023Z,991.53
2023-01-02T11:17:38.946Z,991.54
2023-01-02T11:18:38.947Z,991.52
2023-01-02T11:19:38.940Z,991.54
2023-01-02T11:20:39.184Z,991.57
2023-01-02T11:21:38.929Z,991.60
2023-01-02T11:22:38.908Z,991.62
2023-01-02T11:23:38.942Z,991.64
2023-01-02T11:24:38.927Z,991.67
2023-01-02T11:25:38.909Z,991.70
2023-01-02T11:26:38.890Z,991.72
2023-01-02T11:27:38.895Z,991.78
2023-01-02T11:28:38.917Z,991.77
2023-01-02T11:29:38.871Z,991.81
2023-01-02T11:30:38.891Z,991.81
2023-01-02T11:31:38.883Z,991.78
2023-01-02T11:32:38.886Z,991.80
2023-01-02T11:33:38.850Z,991.83
2023-01-02T11:34:38.890Z,991.85
2023-01-02T11:35:38.826Z,991.83
2023-01-02T11:36:38.851Z,991.78
2023-01-02T11:37:38.855Z,991.80
2023-01-02T11:38:38.844Z,991.74
2023-01-02T11:39:38.811Z,991.68
2023-01-02T11:40:38.833Z,991.66
2023-01-02T11:41:39.213Z,991.63
2023-01-02T11:42:38.845Z,991.64
2023-01-02T11:43:38.842Z,991.62
2023-01-02T11:44:38.786Z,991.66
2023-01-02T11:45:38.840Z,991.64
2023-01-02T11:46:39.024Z,991.67
2023-01-02T11:47:38.825Z,991.67
2023-01-02T11:48:38.810Z,991.68
2023-01-02T11:49:38.822Z,991.68
2023-01-02T11:50:39.001Z,991.73
2023-01-02T11:51:38.785Z,991.68
2023-01-02T11:52:38.753Z,991.71
2023-01-02T11:53:38.738Z,991.71
2023-01-02T11:54:38.780Z,991.79
2023-01-02T11:55:38.739Z,991.78
2023-01-02T11:56:38.757Z,991.76
2023-01-02T11:57:38.737Z,991.72
2023-01-02T11:58:38.741Z,991.73
2023-01-02T11:59:38.751Z,991.75
2023-01-02T12:00:38.911Z,991.71
2023-01-02T12:01:38.729Z,991.76
2023-01-02T12:02:38.748Z,991.78
2023-01-02T12:03:38.721Z,991.74
2023-01-02T12:04:38.681Z,991.79
2023-01-02T12:05:38.676Z,991.74
2023-01-02T12:06:38.661Z,991.82
2023-01-02T12:07:38.661Z,991.75
2023-01-02T12:08:44.517Z,991.79
2023-01-02T12:09:38.857Z,991.76
2023-01-02T12:10:38.645Z,991.77
2023-01-02T12:11:38.644Z,991.79
2023-01-02T12:12:38.634Z,991.77
2023-01-02T12:13:38.628Z,991.76
2023-01-02T12:14:38.627Z,991.79
2023-01-02T12:15:38.633Z,991.81
2023-01-02T12:16:38.634Z,991.79
2023-01-02T12:17:38.612Z,991.78
2023-01-02T12:18:38.714Z,991.68
2023-01-02T12:19:38.594Z,991.69
2023-01-02T12:20:38.589Z,991.74
2023-01-02T12:21:38.585Z,991.71
2023-01-02T12:22:38.574Z,991.75
2023-01-02T12:23:38.581Z,991.76
2023-01-02T12:24:38.569Z,991.69
2023-01-02T12:25:38.552Z,991.76
2023-01-02T12:26:38.768Z,991.68
2023-01-02T12:27:38.549Z,991.69
2023-01-02T12:28:38.536Z,991.63